sensor_id;sensor_type;location;lat;lon;timestamp;temperature;humidity
44513;DHT22;30219;50.588;9.504;2022-09-17T00:02:22;9.90;99.90
44513;DHT22;30219;50.588;9.504;2022-09-17T00:04:50;9.90;99.90
44513;DHT22;30219;50.588;9.504;2022-09-17T00:07:16;9.90;99.90
44513;DHT22;30219;50.588;9.504;2022-09-17T00:09:41;9.90;99.90
44513;DHT22;30219;50.588;9.504;2022-09-17T00:12:08;10.00;99.90
44513;DHT22;30219;50.588;9.504;2022-09-17T00:14:33;9.90;99.90
44513;DHT22;30219;50.588;9.504;2022-09-17T00:16:59;10.00;99.90
44513;DHT22;30219;50.588;9.504;2022-09-17T00:19:25;10.10;99.90
44513;DHT22;30219;50.588;9.504;2022-09-17T00:21:50;10.10;99.90
44513;DHT22;30219;50.588;9.504;2022-09-17T00:24:17;10.20;99.90
44513;DHT22;30219;50.588;9.504;2022-09-17T00:26:43;10.20;99.90
44513;DHT22;30219;50.588;9.504;2022-09-17T00:29:09;10.20;99.90
44513;DHT22;30219;50.588;9.504;2022-09-17T00:31:36;10.20;99.90
44513;DHT22;30219;50.588;9.504;2022-09-17T00:34:03;10.20;99.90
44513;DHT22;30219;50.588;9.504;2022-09-17T00:36:29;10.20;99.90
44513;DHT22;30219;50.588;9.504;2022-09-17T00:38:56;10.30;99.90
44513;DHT22;30219;50.588;9.504;2022-09-17T00:41:25;10.20;99.90
44513;DHT22;30219;50.588;9.504;2022-09-17T00:43:57;10.30;99.90
44513;DHT22;30219;50.588;9.504;2022-09-17T00:46:24;10.20;99.90
44513;DHT22;30219;50.588;9.504;2022-09-17T00:48:52;10.20;99.90
44513;DHT22;30219;50.588;9.504;2022-09-17T00:51:24;10.30;99.90
44513;DHT22;30219;50.588;9.504;2022-09-17T00:53:51;10.20;99.90
44513;DHT22;30219;50.588;9.504;2022-09-17T00:58:47;10.10;99.90
44513;DHT22;30219;50.588;9.504;2022-09-17T01:01:14;10.20;99.90
44513;DHT22;30219;50.588;9.504;2022-09-17T01:03:40;10.10;99.90
44513;DHT22;30219;50.588;9.504;2022-09-17T01:07:03;10.10;99.90
44513;DHT22;30219;50.588;9.504;2022-09-17T01:15:20;10.20;99.90
44513;DHT22;30219;50.588;9.504;2022-09-17T01:20:56;9.90;99.90
44513;DHT22;30219;50.588;9.504;2022-09-17T01:23:49;9.80;99.90
44513;DHT22;30219;50.588;9.504;2022-09-17T01:29:14;9.80;99.90
44513;DHT22;30219;50.588;9.504;2022-09-17T01:31:58;9.80;99.90
44513;DHT22;30219;50.588;9.504;2022-09-17T01:37:16;9.90;99.90
44513;DHT22;30219;50.588;9.504;2022-09-17T01:40:07;9.90;99.90
44513;DHT22;30219;50.588;9.504;2022-09-17T01:42:49;9.90;99.90
44513;DHT22;30219;50.588;9.504;2022-09-17T01:48:20;9.90;99.90
44513;DHT22;30219;50.588;9.504;2022-09-17T01:53:27;9.90;99.90
44513;DHT22;30219;50.588;9.504;2022-09-17T01:55:57;9.80;99.90
44513;DHT22;30219;50.588;9.504;2022-09-17T01:58:30;9.70;99.90
44513;DHT22;30219;50.588;9.504;2022-09-17T02:01:01;9.70;99.90
44513;DHT22;30219;50.588;9.504;2022-09-17T02:08:43;9.60;99.90
44513;DHT22;30219;50.588;9.504;2022-09-17T02:11:11;9.60;99.90
44513;DHT22;30219;50.588;9.504;2022-09-17T02:13:53;9.60;99.90
44513;DHT22;30219;50.588;9.504;2022-09-17T02:16:32;9.50;99.90
44513;DHT22;30219;50.588;9.504;2022-09-17T02:19:24;9.60;99.90
44513;DHT22;30219;50.588;9.504;2022-09-17T02:24:45;9.50;99.90
44513;DHT22;30219;50.588;9.504;2022-09-17T02:27:33;9.60;99.90
44513;DHT22;30219;50.588;9.504;2022-09-17T02:29:59;9.50;99.90
44513;DHT22;30219;50.588;9.504;2022-09-17T02:32:25;9.60;99.90
44513;DHT22;30219;50.588;9.504;2022-09-17T02:34:51;9.70;99.90
44513;DHT22;30219;50.588;9.504;2022-09-17T02:37:17;9.70;99.90
44513;DHT22;30219;50.588;9.504;2022-09-17T02:39:43;9.70;99.90
44513;DHT22;30219;50.588;9.504;2022-09-17T03:01:40;9.60;99.90
44513;DHT22;30219;50.588;9.504;2022-09-17T03:04:09;9.60;99.90
44513;DHT22;30219;50.588;9.504;2022-09-17T03:06:35;9.60;99.90
44513;DHT22;30219;50.588;9.504;2022-09-17T03:09:02;9.60;99.90
44513;DHT22;30219;50.588;9.504;2022-09-17T03:11:28;9.60;99.90
44513;DHT22;30219;50.588;9.504;2022-09-17T03:13:54;9.70;99.90
44513;DHT22;30219;50.588;9.504;2022-09-17T03:16:19;9.60;99.90
44513;DHT22;30219;50.588;9.504;2022-09-17T03:18:45;9.70;99.90
44513;DHT22;30219;50.588;9.504;2022-09-17T03:21:10;9.70;99.90
44513;DHT22;30219;50.588;9.504;2022-09-17T03:23:37;9.80;99.90
44513;DHT22;30219;50.588;9.504;2022-09-17T03:26:03;9.80;99.90
44513;DHT22;30219;50.588;9.504;2022-09-17T03:28:29;9.80;99.90
44513;DHT22;30219;50.588;9.504;2022-09-17T03:30:55;9.70;99.90
44513;DHT22;30219;50.588;9.504;2022-09-17T03:33:20;9.80;99.90
44513;DHT22;30219;50.588;9.504;2022-09-17T03:35:46;9.80;99.90
44513;DHT22;30219;50.588;9.504;2022-09-17T03:38:12;9.80;99.90
44513;DHT22;30219;50.588;9.504;2022-09-17T03:40:38;9.80;99.90
44513;DHT22;30219;50.588;9.504;2022-09-17T03:43:05;9.80;99.90
44513;DHT22;30219;50.588;9.504;2022-09-17T03:45:31;9.80;99.90
44513;DHT22;30219;50.588;9.504;2022-09-17T03:47:56;9.80;99.90
44513;DHT22;30219;50.588;9.504;2022-09-17T03:50:22;9.80;99.90
44513;DHT22;30219;50.588;9.504;2022-09-17T03:52:48;9.80;99.90
44513;DHT22;30219;50.588;9.504;2022-09-17T03:55:13;9.80;99.90
44513;DHT22;30219;50.588;9.504;2022-09-17T03:57:40;9.90;99.90
44513;DHT22;30219;50.588;9.504;2022-09-17T04:00:06;9.80;99.90
44513;DHT22;30219;50.588;9.504;2022-09-17T04:02:32;9.80;99.90
44513;DHT22;30219;50.588;9.504;2022-09-17T04:04:58;9.80;99.90
44513;DHT22;30219;50.588;9.504;2022-09-17T04:07:24;9.80;99.90
44513;DHT22;30219;50.588;9.504;2022-09-17T04:09:49;9.80;99.90
44513;DHT22;30219;50.588;9.504;2022-09-17T04:12:15;9.80;99.90
44513;DHT22;30219;50.588;9.504;2022-09-17T04:14:40;9.70;99.90
44513;DHT22;30219;50.588;9.504;2022-09-17T04:17:06;9.70;99.90
44513;DHT22;30219;50.588;9.504;2022-09-17T04:19:31;9.80;99.90
44513;DHT22;30219;50.588;9.504;2022-09-17T04:21:57;9.80;99.90
44513;DHT22;30219;50.588;9.504;2022-09-17T04:24:23;9.80;99.90
44513;DHT22;30219;50.588;9.504;2022-09-17T04:26:48;9.90;99.90
44513;DHT22;30219;50.588;9.504;2022-09-17T04:29:14;9.80;99.90
44513;DHT22;30219;50.588;9.504;2022-09-17T04:31:40;9.80;99.90
44513;DHT22;30219;50.588;9.504;2022-09-17T04:34:05;9.70;99.90
44513;DHT22;30219;50.588;9.504;2022-09-17T04:36:31;9.70;99.90
44513;DHT22;30219;50.588;9.504;2022-09-17T04:38:56;9.70;99.90
44513;DHT22;30219;50.588;9.504;2022-09-17T04:41:22;9.70;99.90
44513;DHT22;30219;50.588;9.504;2022-09-17T04:43:47;9.70;99.90
44513;DHT22;30219;50.588;9.504;2022-09-17T04:46:13;9.70;99.90
44513;DHT22;30219;50.588;9.504;2022-09-17T04:48:38;9.70;99.90
44513;DHT22;30219;50.588;9.504;2022-09-17T04:51:04;9.70;99.90
44513;DHT22;30219;50.588;9.504;2022-09-17T04:53:30;9.70;99.90
44513;DHT22;30219;50.588;9.504;2022-09-17T04:55:55;9.70;99.90
44513;DHT22;30219;50.588;9.504;2022-09-17T04:58:21;9.70;99.90
44513;DHT22;30219;50.588;9.504;2022-09-17T05:00:47;9.70;99.90
44513;DHT22;30219;50.588;9.504;2022-09-17T05:03:13;9.80;99.90
44513;DHT22;30219;50.588;9.504;2022-09-17T05:05:38;9.80;99.90
44513;DHT22;30219;50.588;9.504;2022-09-17T05:08:04;9.70;99.90
44513;DHT22;30219;50.588;9.504;2022-09-17T05:10:30;9.70;99.90
44513;DHT22;30219;50.588;9.504;2022-09-17T05:12:55;9.70;99.90
44513;DHT22;30219;50.588;9.504;2022-09-17T05:15:22;9.70;99.90
44513;DHT22;30219;50.588;9.504;2022-09-17T05:17:48;9.70;99.90
44513;DHT22;30219;50.588;9.504;2022-09-17T05:20:15;9.70;99.90
44513;DHT22;30219;50.588;9.504;2022-09-17T05:22:45;9.70;99.90
44513;DHT22;30219;50.588;9.504;2022-09-17T05:25:13;9.70;99.90
44513;DHT22;30219;50.588;9.504;2022-09-17T05:27:39;9.70;99.90
44513;DHT22;30219;50.588;9.504;2022-09-17T05:30:06;9.70;99.90
44513;DHT22;30219;50.588;9.504;2022-09-17T05:32:32;9.60;99.90
44513;DHT22;30219;50.588;9.504;2022-09-17T05:34:58;9.70;99.90
44513;DHT22;30219;50.588;9.504;2022-09-17T05:37:23;9.70;99.90
44513;DHT22;30219;50.588;9.504;2022-09-17T05:39:49;9.70;99.90
44513;DHT22;30219;50.588;9.504;2022-09-17T05:42:14;9.70;99.90
44513;DHT22;30219;50.588;9.504;2022-09-17T05:44:40;9.70;99.90
44513;DHT22;30219;50.588;9.504;2022-09-17T05:47:06;9.70;99.90
44513;DHT22;30219;50.588;9.504;2022-09-17T05:49:31;9.70;99.90
44513;DHT22;30219;50.588;9.504;2022-09-17T05:51:57;9.70;99.90
44513;DHT22;30219;50.588;9.504;2022-09-17T05:54:22;9.80;99.90
44513;DHT22;30219;50.588;9.504;2022-09-17T05:56:52;10.00;99.90
44513;DHT22;30219;50.588;9.504;2022-09-17T05:59:17;10.30;99.90
44513;DHT22;30219;50.588;9.504;2022-09-17T06:01:43;10.50;99.90
44513;DHT22;30219;50.588;9.504;2022-09-17T06:04:09;10.80;99.90
44513;DHT22;30219;50.588;9.504;2022-09-17T06:06:35;10.80;99.90
44513;DHT22;30219;50.588;9.504;2022-09-17T06:09:02;10.90;99.90
44513;DHT22;30219;50.588;9.504;2022-09-17T06:11:28;10.80;99.90
44513;DHT22;30219;50.588;9.504;2022-09-17T06:13:54;10.90;99.90
44513;DHT22;30219;50.588;9.504;2022-09-17T06:16:23;10.70;99.90
44513;DHT22;30219;50.588;9.504;2022-09-17T06:18:49;10.50;99.90
44513;DHT22;30219;50.588;9.504;2022-09-17T06:21:17;10.60;99.90
44513;DHT22;30219;50.588;9.504;2022-09-17T06:23:43;10.80;99.90
44513;DHT22;30219;50.588;9.504;2022-09-17T06:26:08;11.10;99.90
44513;DHT22;30219;50.588;9.504;2022-09-17T06:28:34;11.60;99.90
44513;DHT22;30219;50.588;9.504;2022-09-17T06:31:05;11.90;99.90
44513;DHT22;30219;50.588;9.504;2022-09-17T06:33:31;12.20;99.90
44513;DHT22;30219;50.588;9.504;2022-09-17T06:35:58;12.40;99.90
44513;DHT22;30219;50.588;9.504;2022-09-17T06:38:28;12.60;99.90
44513;DHT22;30219;50.588;9.504;2022-09-17T06:40:55;12.80;99.90
44513;DHT22;30219;50.588;9.504;2022-09-17T06:43:21;13.20;99.90
44513;DHT22;30219;50.588;9.504;2022-09-17T06:45:58;13.80;99.90
44513;DHT22;30219;50.588;9.504;2022-09-17T06:48:25;14.30;99.90
44513;DHT22;30219;50.588;9.504;2022-09-17T06:50:52;14.70;99.90
44513;DHT22;30219;50.588;9.504;2022-09-17T06:53:19;14.90;99.90
44513;DHT22;30219;50.588;9.504;2022-09-17T06:55:44;15.30;99.90
44513;DHT22;30219;50.588;9.504;2022-09-17T06:58:10;15.80;99.90
44513;DHT22;30219;50.588;9.504;2022-09-17T07:00:35;15.80;99.90
44513;DHT22;30219;50.588;9.504;2022-09-17T07:03:01;16.30;99.90
44513;DHT22;30219;50.588;9.504;2022-09-17T07:05:28;16.30;99.90
44513;DHT22;30219;50.588;9.504;2022-09-17T07:07:54;16.70;99.90
44513;DHT22;30219;50.588;9.504;2022-09-17T07:10:21;16.30;99.80
44513;DHT22;30219;50.588;9.504;2022-09-17T07:12:51;16.40;99.90
44513;DHT22;30219;50.588;9.504;2022-09-17T07:15:16;16.30;99.90
44513;DHT22;30219;50.588;9.504;2022-09-17T07:17:42;15.90;99.90
44513;DHT22;30219;50.588;9.504;2022-09-17T07:20:09;16.20;99.90
44513;DHT22;30219;50.588;9.504;2022-09-17T07:22:35;17.10;99.30
44513;DHT22;30219;50.588;9.504;2022-09-17T07:25:00;17.40;98.90
44513;DHT22;30219;50.588;9.504;2022-09-17T07:27:27;16.90;98.70
44513;DHT22;30219;50.588;9.504;2022-09-17T07:29:53;17.60;99.00
44513;DHT22;30219;50.588;9.504;2022-09-17T07:32:19;18.10;97.60
44513;DHT22;30219;50.588;9.504;2022-09-17T07:34:44;18.50;96.40
44513;DHT22;30219;50.588;9.504;2022-09-17T07:37:10;18.10;96.40
44513;DHT22;30219;50.588;9.504;2022-09-17T07:39:35;18.30;97.20
44513;DHT22;30219;50.588;9.504;2022-09-17T07:42:01;18.80;96.80
44513;DHT22;30219;50.588;9.504;2022-09-17T07:44:29;19.00;95.50
44513;DHT22;30219;50.588;9.504;2022-09-17T07:46:55;17.70;97.10
44513;DHT22;30219;50.588;9.504;2022-09-17T07:49:20;18.20;97.00
44513;DHT22;30219;50.588;9.504;2022-09-17T07:51:46;18.60;95.30
44513;DHT22;30219;50.588;9.504;2022-09-17T07:54:11;18.90;95.10
44513;DHT22;30219;50.588;9.504;2022-09-17T07:56:37;19.40;94.60
44513;DHT22;30219;50.588;9.504;2022-09-17T07:59:03;19.60;94.30
44513;DHT22;30219;50.588;9.504;2022-09-17T08:01:31;20.10;93.10
44513;DHT22;30219;50.588;9.504;2022-09-17T08:03:58;20.50;93.10
44513;DHT22;30219;50.588;9.504;2022-09-17T08:06:25;20.80;92.70
44513;DHT22;30219;50.588;9.504;2022-09-17T08:08:53;20.50;91.60
44513;DHT22;30219;50.588;9.504;2022-09-17T08:11:21;20.40;92.20
44513;DHT22;30219;50.588;9.504;2022-09-17T08:13:48;20.10;92.00
44513;DHT22;30219;50.588;9.504;2022-09-17T08:16:15;20.10;92.20
44513;DHT22;30219;50.588;9.504;2022-09-17T08:18:41;20.00;92.40
44513;DHT22;30219;50.588;9.504;2022-09-17T08:21:11;19.80;92.60
44513;DHT22;30219;50.588;9.504;2022-09-17T08:23:38;19.60;92.70
44513;DHT22;30219;50.588;9.504;2022-09-17T08:26:04;19.30;93.50
44513;DHT22;30219;50.588;9.504;2022-09-17T08:28:33;19.10;93.20
44513;DHT22;30219;50.588;9.504;2022-09-17T08:31:04;17.70;93.50
44513;DHT22;30219;50.588;9.504;2022-09-17T08:33:35;17.60;94.60
44513;DHT22;30219;50.588;9.504;2022-09-17T08:36:01;17.40;94.50
44513;DHT22;30219;50.588;9.504;2022-09-17T08:38:29;17.60;94.90
44513;DHT22;30219;50.588;9.504;2022-09-17T08:40:58;18.50;94.50
44513;DHT22;30219;50.588;9.504;2022-09-17T08:43:26;19.00;94.00
44513;DHT22;30219;50.588;9.504;2022-09-17T08:45:55;19.00;93.80
44513;DHT22;30219;50.588;9.504;2022-09-17T08:48:24;19.10;93.00
44513;DHT22;30219;50.588;9.504;2022-09-17T08:50:52;18.50;93.30
44513;DHT22;30219;50.588;9.504;2022-09-17T09:01:50;19.00;93.30
44513;DHT22;30219;50.588;9.504;2022-09-17T09:04:48;17.80;94.10
44513;DHT22;30219;50.588;9.504;2022-09-17T09:07:36;17.30;93.70
44513;DHT22;30219;50.588;9.504;2022-09-17T09:12:38;16.70;94.80
44513;DHT22;30219;50.588;9.504;2022-09-17T09:15:26;16.70;94.50
44513;DHT22;30219;50.588;9.504;2022-09-17T09:17:53;17.00;94.60
44513;DHT22;30219;50.588;9.504;2022-09-17T09:20:29;17.70;93.10
44513;DHT22;30219;50.588;9.504;2022-09-17T09:22:58;18.30;93.00
44513;DHT22;30219;50.588;9.504;2022-09-17T09:25:30;18.90;92.60
44513;DHT22;30219;50.588;9.504;2022-09-17T09:28:15;18.70;92.30
44513;DHT22;30219;50.588;9.504;2022-09-17T09:31:04;18.60;92.50
44513;DHT22;30219;50.588;9.504;2022-09-17T09:33:36;18.50;92.30
44513;DHT22;30219;50.588;9.504;2022-09-17T09:36:14;18.30;92.50
44513;DHT22;30219;50.588;9.504;2022-09-17T09:41:17;17.40;92.70
44513;DHT22;30219;50.588;9.504;2022-09-17T09:43:46;17.30;92.90
44513;DHT22;30219;50.588;9.504;2022-09-17T09:49:25;16.70;94.00
44513;DHT22;30219;50.588;9.504;2022-09-17T09:57:03;16.80;94.50
44513;DHT22;30219;50.588;9.504;2022-09-17T09:59:32;17.00;94.50
44513;DHT22;30219;50.588;9.504;2022-09-17T10:02:00;17.00;94.30
44513;DHT22;30219;50.588;9.504;2022-09-17T10:04:27;16.80;94.40
44513;DHT22;30219;50.588;9.504;2022-09-17T10:06:59;16.40;95.40
44513;DHT22;30219;50.588;9.504;2022-09-17T10:09:27;16.00;97.40
44513;DHT22;30219;50.588;9.504;2022-09-17T10:12:01;15.70;98.00
44513;DHT22;30219;50.588;9.504;2022-09-17T10:14:30;15.30;98.30
44513;DHT22;30219;50.588;9.504;2022-09-17T10:19:43;15.60;98.20
44513;DHT22;30219;50.588;9.504;2022-09-17T10:22:30;15.80;98.40
44513;DHT22;30219;50.588;9.504;2022-09-17T10:24:58;16.20;97.90
44513;DHT22;30219;50.588;9.504;2022-09-17T10:27:25;16.30;98.10
44513;DHT22;30219;50.588;9.504;2022-09-17T10:32:33;16.70;97.50
44513;DHT22;30219;50.588;9.504;2022-09-17T10:40:00;17.70;95.30
44513;DHT22;30219;50.588;9.504;2022-09-17T10:42:26;17.70;94.80
44513;DHT22;30219;50.588;9.504;2022-09-17T10:44:57;18.00;94.00
44513;DHT22;30219;50.588;9.504;2022-09-17T10:47:28;18.30;94.50
44513;DHT22;30219;50.588;9.504;2022-09-17T11:00:11;18.50;91.60
44513;DHT22;30219;50.588;9.504;2022-09-17T11:16:17;17.20;93.10
44513;DHT22;30219;50.588;9.504;2022-09-17T11:19:31;16.10;94.50
44513;DHT22;30219;50.588;9.504;2022-09-17T11:21:48;16.00;96.70
44513;DHT22;30219;50.588;9.504;2022-09-17T11:27:16;16.90;98.10
44513;DHT22;30219;50.588;9.504;2022-09-17T11:35:28;18.50;96.50
44513;DHT22;30219;50.588;9.504;2022-09-17T11:38:23;18.80;95.20
44513;DHT22;30219;50.588;9.504;2022-09-17T11:43:27;18.90;92.90
44513;DHT22;30219;50.588;9.504;2022-09-17T11:46:24;18.90;91.40
44513;DHT22;30219;50.588;9.504;2022-09-17T11:49:10;18.60;90.10
44513;DHT22;30219;50.588;9.504;2022-09-17T11:51:47;18.60;91.80
44513;DHT22;30219;50.588;9.504;2022-09-17T11:54:17;18.70;91.50
44513;DHT22;30219;50.588;9.504;2022-09-17T11:56:46;18.90;91.20
44513;DHT22;30219;50.588;9.504;2022-09-17T11:59:36;19.20;91.10
44513;DHT22;30219;50.588;9.504;2022-09-17T12:02:18;19.50;90.90
44513;DHT22;30219;50.588;9.504;2022-09-17T12:04:53;19.50;90.40
44513;DHT22;30219;50.588;9.504;2022-09-17T12:07:40;19.80;89.60
44513;DHT22;30219;50.588;9.504;2022-09-17T12:10:38;19.60;87.90
44513;DHT22;30219;50.588;9.504;2022-09-17T12:13:14;18.70;89.60
44513;DHT22;30219;50.588;9.504;2022-09-17T12:15:44;17.70;92.40
44513;DHT22;30219;50.588;9.504;2022-09-17T12:21:01;15.60;96.80
44513;DHT22;30219;50.588;9.504;2022-09-17T12:23:45;15.60;98.10
44513;DHT22;30219;50.588;9.504;2022-09-17T12:32:16;16.30;98.30
44513;DHT22;30219;50.588;9.504;2022-09-17T12:40:29;16.90;97.50
44513;DHT22;30219;50.588;9.504;2022-09-17T12:43:16;17.10;97.40
44513;DHT22;30219;50.588;9.504;2022-09-17T12:54:40;17.90;94.90
44513;DHT22;30219;50.588;9.504;2022-09-17T13:00:07;18.40;94.20
44513;DHT22;30219;50.588;9.504;2022-09-17T13:14:13;18.30;92.30
44513;DHT22;30219;50.588;9.504;2022-09-17T13:19:30;18.10;92.20
44513;DHT22;30219;50.588;9.504;2022-09-17T13:22:05;17.60;91.90
44513;DHT22;30219;50.588;9.504;2022-09-17T13:24:32;17.40;92.30
44513;DHT22;30219;50.588;9.504;2022-09-17T13:26:59;17.10;92.20
44513;DHT22;30219;50.588;9.504;2022-09-17T13:29:59;16.80;91.50
44513;DHT22;30219;50.588;9.504;2022-09-17T13:37:36;16.20;90.70
44513;DHT22;30219;50.588;9.504;2022-09-17T13:40:03;16.20;92.20
44513;DHT22;30219;50.588;9.504;2022-09-17T13:42:42;16.50;92.00
44513;DHT22;30219;50.588;9.504;2022-09-17T13:45:17;16.50;91.10
44513;DHT22;30219;50.588;9.504;2022-09-17T13:48:12;16.50;91.40
44513;DHT22;30219;50.588;9.504;2022-09-17T13:50:44;16.60;91.80
44513;DHT22;30219;50.588;9.504;2022-09-17T14:05:54;16.40;92.50
44513;DHT22;30219;50.588;9.504;2022-09-17T14:19:04;15.60;93.00
44513;DHT22;30219;50.588;9.504;2022-09-17T14:22:10;15.90;93.40
44513;DHT22;30219;50.588;9.504;2022-09-17T14:32:43;16.80;92.40
44513;DHT22;30219;50.588;9.504;2022-09-17T14:35:21;16.60;92.60
44513;DHT22;30219;50.588;9.504;2022-09-17T14:37:54;16.50;93.10
44513;DHT22;30219;50.588;9.504;2022-09-17T14:40:21;16.70;93.70
44513;DHT22;30219;50.588;9.504;2022-09-17T14:42:52;16.60;93.50
44513;DHT22;30219;50.588;9.504;2022-09-17T14:45:26;16.60;93.50
44513;DHT22;30219;50.588;9.504;2022-09-17T14:48:30;16.40;94.00
44513;DHT22;30219;50.588;9.504;2022-09-17T14:53:45;15.40;95.20
44513;DHT22;30219;50.588;9.504;2022-09-17T14:56:18;15.40;95.00
44513;DHT22;30219;50.588;9.504;2022-09-17T14:58:47;15.70;95.10
44513;DHT22;30219;50.588;9.504;2022-09-17T15:01:26;15.70;94.60
44513;DHT22;30219;50.588;9.504;2022-09-17T15:04:23;15.80;94.40
44513;DHT22;30219;50.588;9.504;2022-09-17T15:06:49;15.80;93.70
44513;DHT22;30219;50.588;9.504;2022-09-17T15:09:18;15.50;94.10
44513;DHT22;30219;50.588;9.504;2022-09-17T15:11:44;15.50;94.90
44513;DHT22;30219;50.588;9.504;2022-09-17T15:14:21;15.60;95.30
44513;DHT22;30219;50.588;9.504;2022-09-17T15:16:50;15.70;94.60
44513;DHT22;30219;50.588;9.504;2022-09-17T15:19:38;15.40;94.10
44513;DHT22;30219;50.588;9.504;2022-09-17T15:22:13;15.30;94.20
44513;DHT22;30219;50.588;9.504;2022-09-17T15:24:44;15.00;94.70
44513;DHT22;30219;50.588;9.504;2022-09-17T15:27:34;14.80;95.30
44513;DHT22;30219;50.588;9.504;2022-09-17T15:30:04;15.00;95.70
44513;DHT22;30219;50.588;9.504;2022-09-17T15:32:32;15.20;95.30
44513;DHT22;30219;50.588;9.504;2022-09-17T15:35:16;15.10;95.10
44513;DHT22;30219;50.588;9.504;2022-09-17T15:37:50;15.20;95.30
44513;DHT22;30219;50.588;9.504;2022-09-17T15:40:46;15.20;95.40
44513;DHT22;30219;50.588;9.504;2022-09-17T15:45:46;14.90;95.20
44513;DHT22;30219;50.588;9.504;2022-09-17T15:48:38;14.90;96.00
44513;DHT22;30219;50.588;9.504;2022-09-17T15:51:11;14.90;96.00
44513;DHT22;30219;50.588;9.504;2022-09-17T15:53:50;14.90;95.80
44513;DHT22;30219;50.588;9.504;2022-09-17T15:56:18;15.00;96.20
44513;DHT22;30219;50.588;9.504;2022-09-17T16:09:12;14.40;95.90
44513;DHT22;30219;50.588;9.504;2022-09-17T16:11:38;14.20;96.00
44513;DHT22;30219;50.588;9.504;2022-09-17T16:14:04;14.10;96.10
44513;DHT22;30219;50.588;9.504;2022-09-17T16:16:35;14.10;96.40
44513;DHT22;30219;50.588;9.504;2022-09-17T16:19:02;14.00;96.30
44513;DHT22;30219;50.588;9.504;2022-09-17T16:21:27;13.70;96.60
44513;DHT22;30219;50.588;9.504;2022-09-17T16:23:53;13.70;97.00
44513;DHT22;30219;50.588;9.504;2022-09-17T16:26:21;13.70;97.60
44513;DHT22;30219;50.588;9.504;2022-09-17T16:28:51;13.80;99.00
44513;DHT22;30219;50.588;9.504;2022-09-17T16:31:19;13.70;99.10
44513;DHT22;30219;50.588;9.504;2022-09-17T16:33:45;13.60;99.80
44513;DHT22;30219;50.588;9.504;2022-09-17T16:36:10;13.70;99.40
44513;DHT22;30219;50.588;9.504;2022-09-17T16:38:36;13.90;99.40
44513;DHT22;30219;50.588;9.504;2022-09-17T16:41:06;13.80;99.20
44513;DHT22;30219;50.588;9.504;2022-09-17T16:43:32;13.80;99.10
44513;DHT22;30219;50.588;9.504;2022-09-17T16:46:03;13.60;99.00
44513;DHT22;30219;50.588;9.504;2022-09-17T16:48:30;13.40;99.40
44513;DHT22;30219;50.588;9.504;2022-09-17T16:50:56;13.40;99.60
44513;DHT22;30219;50.588;9.504;2022-09-17T16:53:21;13.30;99.50
44513;DHT22;30219;50.588;9.504;2022-09-17T16:55:47;13.00;99.90
44513;DHT22;30219;50.588;9.504;2022-09-17T16:58:13;12.90;99.90
44513;DHT22;30219;50.588;9.504;2022-09-17T17:00:41;12.70;99.90
44513;DHT22;30219;50.588;9.504;2022-09-17T17:03:11;12.70;99.90
44513;DHT22;30219;50.588;9.504;2022-09-17T17:05:37;12.60;99.90
44513;DHT22;30219;50.588;9.504;2022-09-17T17:08:03;12.60;99.90
44513;DHT22;30219;50.588;9.504;2022-09-17T17:10:29;12.60;99.90
44513;DHT22;30219;50.588;9.504;2022-09-17T17:12:55;12.40;99.90
44513;DHT22;30219;50.588;9.504;2022-09-17T17:15:21;12.40;99.90
44513;DHT22;30219;50.588;9.504;2022-09-17T17:17:47;12.30;99.90
44513;DHT22;30219;50.588;9.504;2022-09-17T17:20:12;12.40;99.90
44513;DHT22;30219;50.588;9.504;2022-09-17T17:22:42;12.20;99.90
44513;DHT22;30219;50.588;9.504;2022-09-17T17:25:08;12.10;99.90
44513;DHT22;30219;50.588;9.504;2022-09-17T17:27:34;12.00;99.90
44513;DHT22;30219;50.588;9.504;2022-09-17T17:30:01;12.00;99.90
44513;DHT22;30219;50.588;9.504;2022-09-17T17:32:28;12.00;99.90
44513;DHT22;30219;50.588;9.504;2022-09-17T17:34:54;11.90;99.90
44513;DHT22;30219;50.588;9.504;2022-09-17T17:37:20;11.90;99.90
44513;DHT22;30219;50.588;9.504;2022-09-17T17:39:47;11.80;99.90
44513;DHT22;30219;50.588;9.504;2022-09-17T17:42:13;11.80;99.90
44513;DHT22;30219;50.588;9.504;2022-09-17T17:44:38;11.70;99.90
44513;DHT22;30219;50.588;9.504;2022-09-17T17:47:04;11.60;99.90
44513;DHT22;30219;50.588;9.504;2022-09-17T17:49:31;11.60;99.90
44513;DHT22;30219;50.588;9.504;2022-09-17T17:51:57;11.50;99.90
44513;DHT22;30219;50.588;9.504;2022-09-17T17:54:23;11.50;99.90
44513;DHT22;30219;50.588;9.504;2022-09-17T17:56:48;11.50;99.90
44513;DHT22;30219;50.588;9.504;2022-09-17T17:59:14;11.50;99.90
44513;DHT22;30219;50.588;9.504;2022-09-17T18:01:40;11.40;99.90
44513;DHT22;30219;50.588;9.504;2022-09-17T18:04:06;11.40;99.90
44513;DHT22;30219;50.588;9.504;2022-09-17T18:06:32;11.40;99.90
44513;DHT22;30219;50.588;9.504;2022-09-17T18:08:59;11.40;99.90
44513;DHT22;30219;50.588;9.504;2022-09-17T18:11:25;11.30;99.90
44513;DHT22;30219;50.588;9.504;2022-09-17T18:13:52;11.30;99.90
44513;DHT22;30219;50.588;9.504;2022-09-17T18:16:18;11.20;99.90
44513;DHT22;30219;50.588;9.504;2022-09-17T18:18:45;11.20;99.90
44513;DHT22;30219;50.588;9.504;2022-09-17T18:21:21;11.00;99.90
44513;DHT22;30219;50.588;9.504;2022-09-17T18:23:48;11.00;99.90
44513;DHT22;30219;50.588;9.504;2022-09-17T18:26:23;11.00;99.90
44513;DHT22;30219;50.588;9.504;2022-09-17T18:28:49;10.90;99.90
44513;DHT22;30219;50.588;9.504;2022-09-17T18:33:46;10.80;99.90
44513;DHT22;30219;50.588;9.504;2022-09-17T18:36:11;10.70;99.90
44513;DHT22;30219;50.588;9.504;2022-09-17T18:38:38;10.60;99.90
44513;DHT22;30219;50.588;9.504;2022-09-17T18:41:05;10.70;99.90
44513;DHT22;30219;50.588;9.504;2022-09-17T18:43:35;10.70;99.90
44513;DHT22;30219;50.588;9.504;2022-09-17T18:46:00;10.70;99.90
44513;DHT22;30219;50.588;9.504;2022-09-17T18:48:26;10.50;99.90
44513;DHT22;30219;50.588;9.504;2022-09-17T18:51:04;10.50;99.90
44513;DHT22;30219;50.588;9.504;2022-09-17T18:53:33;10.40;99.90
44513;DHT22;30219;50.588;9.504;2022-09-17T18:56:04;10.40;99.90
44513;DHT22;30219;50.588;9.504;2022-09-17T18:58:31;10.40;99.90
44513;DHT22;30219;50.588;9.504;2022-09-17T19:00:56;10.30;99.90
44513;DHT22;30219;50.588;9.504;2022-09-17T19:03:22;10.20;99.90
44513;DHT22;30219;50.588;9.504;2022-09-17T19:05:48;10.20;99.90
44513;DHT22;30219;50.588;9.504;2022-09-17T19:08:13;10.10;99.90
44513;DHT22;30219;50.588;9.504;2022-09-17T19:10:39;10.00;99.90
44513;DHT22;30219;50.588;9.504;2022-09-17T19:13:04;10.00;99.90
44513;DHT22;30219;50.588;9.504;2022-09-17T19:15:32;10.00;99.90
44513;DHT22;30219;50.588;9.504;2022-09-17T19:17:57;10.00;99.90
44513;DHT22;30219;50.588;9.504;2022-09-17T19:20:23;9.90;99.90
44513;DHT22;30219;50.588;9.504;2022-09-17T19:22:49;9.80;99.90
44513;DHT22;30219;50.588;9.504;2022-09-17T19:25:15;9.80;99.90